Time;durP1;ratioP1;P1;durP2;ratioP2;P2;SDS_P1;SDS_P2;PMS_P1;PMS_P2;Temp;Humidity;BMP_temperature;BMP_pressure;BME280_temperature;BME280_humidity;BME280_pressure;Samples;Min_cycle;Max_cycle;Signal;HPM_P1;HPM_P2
2022/04/30 00:00:00;;;;;;;9.75;5.38;;;;;;;12.09;59.09;95844.41;5065306;28;20614;-75
2022/04/30 00:02:26;;;;;;;8.77;5.97;;;;;;;11.92;59.65;95839.09;5064190;28;20097;-75
2022/04/30 00:04:52;;;;;;;8.70;6.00;;;;;;;11.85;59.56;95833.56;5047314;28;20025;-75
2022/04/30 00:07:19;;;;;;;8.07;5.75;;;;;;;11.89;59.79;95834.06;5030002;28;20036;-75
2022/04/30 00:09:44;;;;;;;8.05;5.53;;;;;;;11.81;60.27;95836.78;5047019;28;20036;-76
2022/04/30 00:12:10;;;;;;;9.05;5.45;;;;;;;11.84;60.10;95836.44;5029892;28;20032;-75
2022/04/30 00:14:35;;;;;;;8.38;5.50;;;;;;;11.85;59.80;95827.34;5064483;28;20463;-75
2022/04/30 00:17:01;;;;;;;7.95;5.30;;;;;;;11.85;59.88;95832.72;5030367;28;20074;-75
2022/04/30 00:19:28;;;;;;;8.70;5.60;;;;;;;11.85;59.86;95832.72;5046048;28;20415;-76
2022/04/30 00:21:53;;;;;;;8.57;5.55;;;;;;;11.84;59.72;95834.59;5047339;28;20130;-75
2022/04/30 00:24:19;;;;;;;7.78;5.82;;;;;;;11.80;60.09;95841.31;5029690;28;20033;-75
2022/04/30 00:26:44;;;;;;;8.70;5.88;;;;;;;11.78;59.59;95837.13;5046734;28;20025;-75
2022/04/30 00:29:10;;;;;;;7.43;5.85;;;;;;;11.75;59.98;95831.09;5050205;28;20036;-76
2022/04/30 00:31:36;;;;;;;11.13;6.80;;;;;;;11.74;59.97;95831.25;5068368;28;20107;-75
2022/04/30 00:34:02;;;;;;;9.13;6.10;;;;;;;11.70;60.17;95835.31;5017738;28;20403;-75
2022/04/30 00:36:28;;;;;;;7.78;6.18;;;;;;;11.70;60.12;95830.75;5067701;28;20044;-75
2022/04/30 00:38:54;;;;;;;8.60;6.07;;;;;;;11.63;60.34;95835.19;5034542;28;20054;-76
2022/04/30 00:41:21;;;;;;;8.60;6.35;;;;;;;11.53;60.73;95839.91;5050073;28;20110;-76
2022/04/30 00:43:47;;;;;;;8.40;6.03;;;;;;;11.53;60.48;95834.53;5050904;28;20028;-75
2022/04/30 00:46:16;;;;;;;9.68;7.70;;;;;;;11.55;60.80;95841.41;5033416;28;20427;-76
2022/04/30 00:48:42;;;;;;;7.85;6.05;;;;;;;11.59;60.68;95829.31;5050423;28;20028;-77
2022/04/30 00:51:15;;;;;;;8.55;6.30;;;;;;;11.52;60.77;95828.34;5068310;28;20024;-75
2022/04/30 00:53:44;;;;;;;8.52;6.20;;;;;;;11.43;60.88;95834.75;5033196;28;20028;-76
2022/04/30 00:56:12;;;;;;;8.20;5.80;;;;;;;11.44;61.11;95823.84;5050834;28;20481;-75
2022/04/30 00:58:40;;;;;;;9.50;6.45;;;;;;;11.46;60.89;95823.66;5033328;28;20081;-76
2022/04/30 01:01:05;;;;;;;9.18;6.22;;;;;;;11.48;60.80;95818.94;5050463;28;20033;-76
2022/04/30 01:03:31;;;;;;;9.40;6.35;;;;;;;11.50;60.52;95812.41;5049751;28;20079;-76
2022/04/30 01:05:58;;;;;;;10.02;6.85;;;;;;;11.49;60.49;95818.75;5068026;28;20021;-76
2022/04/30 01:08:27;;;;;;;10.18;6.53;;;;;;;11.49;60.34;95813.38;5067972;28;20636;-76
2022/04/30 01:10:53;;;;;;;9.25;6.85;;;;;;;11.46;60.41;95808.34;5033833;28;20024;-75
2022/04/30 01:13:19;;;;;;;11.07;7.15;;;;;;;11.44;60.30;95810.41;5050329;28;20031;-76
2022/04/30 01:15:45;;;;;;;9.05;6.93;;;;;;;11.47;60.89;95807.38;5049157;28;20032;-76
2022/04/30 01:18:10;;;;;;;8.82;6.35;;;;;;;11.47;60.86;95804.69;5033715;28;20036;-78
2022/04/30 01:20:37;;;;;;;10.55;6.80;;;;;;;11.48;61.00;95811.72;5049454;28;20047;-75
2022/04/30 01:23:04;;;;;;;10.18;6.70;;;;;;;11.53;60.92;95813.03;5033407;28;20422;-75
2022/04/30 01:25:32;;;;;;;9.88;7.07;;;;;;;11.47;60.99;95810.06;5032777;28;20048;-75
2022/04/30 01:28:01;;;;;;;12.50;7.40;;;;;;;11.45;61.27;95814.75;5049749;28;20694;-75
2022/04/30 01:30:27;;;;;;;9.70;6.95;;;;;;;11.33;61.51;95824.19;5033143;28;20035;-77
2022/04/30 01:38:20;;;;;;;12.70;6.57;;;;;;;11.27;61.85;95817.66;5067290;28;20039;-74
2022/04/30 01:40:49;;;;;;;9.90;6.47;;;;;;;11.17;62.36;95814.34;5031742;28;20407;-75
2022/04/30 01:43:15;;;;;;;10.32;7.03;;;;;;;11.13;62.33;95809.31;5067332;28;20037;-76
2022/04/30 01:45:40;;;;;;;8.68;6.10;;;;;;;11.10;62.35;95816.88;5032221;28;20030;-75
2022/04/30 01:48:12;;;;;;;11.52;6.78;;;;;;;11.00;62.39;95812.53;5049686;28;20040;-75
2022/04/30 01:50:38;;;;;;;10.93;6.70;;;;;;;10.99;62.78;95818.88;5033417;28;20037;-78
2022/04/30 01:53:03;;;;;;;10.52;7.35;;;;;;;11.04;62.88;95809.50;5033068;28;20043;-74
2022/04/30 01:55:29;;;;;;;9.68;7.07;;;;;;;10.96;62.63;95813.84;5048938;28;20059;-75
2022/04/30 01:57:55;;;;;;;10.43;6.95;;;;;;;10.95;63.11;95812.19;5032256;28;20574;-75
2022/04/30 02:00:20;;;;;;;10.70;7.32;;;;;;;10.98;62.88;95811.00;5049018;28;20040;-76
2022/04/30 02:02:48;;;;;;;12.00;6.93;;;;;;;10.94;63.23;95807.84;5031881;28;20024;-75
2022/04/30 02:05:16;;;;;;;8.95;6.60;;;;;;;10.97;63.57;95820.06;5049417;28;20129;-76
2022/04/30 02:07:45;;;;;;;9.30;6.28;;;;;;;10.97;63.47;95809.34;5032207;28;20479;-75
2022/04/30 02:10:11;;;;;;;11.07;7.10;;;;;;;10.95;63.16;95814.88;5032949;28;20068;-74
2022/04/30 02:12:36;;;;;;;15.13;7.03;;;;;;;10.93;63.51;95814.19;5066584;28;20040;-76
2022/04/30 02:15:02;;;;;;;11.15;7.25;;;;;;;10.96;63.66;95816.53;5032292;28;20044;-75
2022/04/30 02:17:31;;;;;;;9.50;6.82;;;;;;;10.99;63.34;95810.81;5065235;28;20032;-76
2022/04/30 02:22:42;;;;;;;10.73;7.45;;;;;;;10.98;63.61;95801.13;5066969;28;20035;-75
2022/04/30 02:25:09;;;;;;;10.48;7.20;;;;;;;10.99;63.50;95807.31;5031124;28;20036;-75
2022/04/30 02:27:42;;;;;;;10.50;6.47;;;;;;;11.03;63.30;95803.28;5032480;28;20031;-76
2022/04/30 02:30:14;;;;;;;9.57;6.85;;;;;;;10.99;63.34;95808.16;5049209;28;20101;-75
2022/04/30 02:32:46;;;;;;;8.95;7.00;;;;;;;11.02;63.60;95801.63;5048592;28;20036;-74
2022/04/30 02:35:16;;;;;;;10.40;6.60;;;;;;;11.04;63.64;95807.66;5031849;28;20025;-75
2022/04/30 02:37:44;;;;;;;9.48;7.13;;;;;;;11.08;63.60;95805.44;5047646;28;20032;-75
2022/04/30 02:40:13;;;;;;;10.20;7.55;;;;;;;11.04;63.46;95796.06;5048932;28;20463;-76
2022/04/30 02:42:39;;;;;;;12.10;7.38;;;;;;;10.97;64.01;95799.44;5065734;28;20073;-75
2022/04/30 02:45:06;;;;;;;10.43;7.20;;;;;;;11.04;64.00;95799.59;5031958;28;20029;-76
2022/04/30 02:47:31;;;;;;;10.77;7.68;;;;;;;10.99;64.32;95802.78;5047748;28;20461;-76
2022/04/30 02:49:57;;;;;;;10.90;7.65;;;;;;;10.93;64.34;95803.47;5031008;28;20672;-75
2022/04/30 02:52:23;;;;;;;12.73;7.75;;;;;;;10.92;64.51;95800.94;5065220;28;20082;-75
2022/04/30 02:54:48;;;;;;;10.68;7.32;;;;;;;10.88;64.83;95792.41;5047625;28;20020;-77
2022/04/30 02:57:14;;;;;;;10.60;7.53;;;;;;;10.88;64.90;95792.41;5065916;28;20536;-74
2022/04/30 02:59:54;;;;;;;11.45;7.97;;;;;;;10.90;64.52;95798.44;5014401;28;20021;-76
2022/04/30 03:02:23;;;;;;;11.68;7.80;;;;;;;10.83;64.78;95786.72;5050026;28;20052;-75
2022/04/30 03:04:51;;;;;;;11.18;7.30;;;;;;;10.83;64.80;95790.22;5065571;28;20150;-76
2022/04/30 03:07:22;;;;;;;10.13;7.57;;;;;;;10.81;64.92;95799.47;5014740;28;20431;-76
2022/04/30 03:09:48;;;;;;;10.63;7.60;;;;;;;10.70;65.24;95801.50;5048293;28;20032;-76
2022/04/30 03:12:14;;;;;;;10.20;7.35;;;;;;;10.62;65.77;95790.75;5047265;28;20025;-75
2022/04/30 03:14:41;;;;;;;9.82;7.07;;;;;;;10.65;65.66;95786.91;5031487;28;20052;-75
2022/04/30 03:22:34;;;;;;;10.63;7.38;;;;;;;10.61;65.85;95791.75;5050248;28;20418;-76
2022/04/30 03:25:00;;;;;;;11.63;7.40;;;;;;;10.63;65.54;95800.47;5047229;28;20507;-76
2022/04/30 03:27:25;;;;;;;10.77;8.07;;;;;;;10.63;65.41;95798.66;5065434;28;20123;-75
2022/04/30 03:29:51;;;;;;;12.10;7.30;;;;;;;10.63;65.09;95803.16;5046804;28;20399;-75
2022/04/30 03:32:17;;;;;;;11.45;7.38;;;;;;;10.60;65.06;95803.50;5031459;28;20029;-76
2022/04/30 03:34:42;;;;;;;12.02;7.25;;;;;;;10.63;64.94;95803.16;5030390;28;20471;-76
2022/04/30 03:37:08;;;;;;;11.23;7.80;;;;;;;10.60;64.67;95803.50;5047318;28;20028;-76
2022/04/30 03:39:33;;;;;;;12.30;8.10;;;;;;;10.60;64.38;95808.88;5065246;28;20041;-75
2022/04/30 03:41:59;;;;;;;11.93;7.88;;;;;;;10.56;63.55;95818.25;5047134;28;20028;-75
2022/04/30 03:44:25;;;;;;;11.82;7.32;;;;;;;10.54;63.94;95814.91;5064936;28;20033;-76
2022/04/30 03:46:51;;;;;;;13.73;7.30;;;;;;;10.59;64.15;95812.56;5046652;28;20552;-75
2022/04/30 03:49:16;;;;;;;11.82;8.02;;;;;;;10.59;64.32;95816.06;5047283;28;20500;-75
2022/04/30 03:51:42;;;;;;;10.57;7.50;;;;;;;10.60;64.00;95824.94;5030183;28;20029;-76
2022/04/30 03:54:07;;;;;;;12.32;7.15;;;;;;;10.62;63.48;95820.28;5014296;28;20046;-75
2022/04/30 03:56:33;;;;;;;11.13;7.95;;;;;;;10.54;63.40;95821.13;5064956;28;20028;-76
2022/04/30 03:58:58;;;;;;;12.98;7.80;;;;;;;10.46;63.43;95813.88;5046875;28;20810;-76
2022/04/30 04:01:24;;;;;;;10.27;7.82;;;;;;;10.41;63.64;95818.91;5046754;28;20491;-76
2022/04/30 04:03:50;;;;;;;11.40;8.23;;;;;;;10.32;64.15;95814.50;5064454;28;20025;-76
2022/04/30 04:06:18;;;;;;;12.15;7.53;;;;;;;10.21;64.23;95819.19;5064996;28;20027;-76
2022/04/30 04:08:44;;;;;;;13.00;7.53;;;;;;;10.16;63.90;95823.38;5046427;28;20051;-75
2022/04/30 04:11:13;;;;;;;15.68;7.50;;;;;;;10.10;63.82;95819.50;5030743;28;20028;-76
2022/04/30 04:19:07;;;;;;;12.48;8.07;;;;;;;10.03;64.62;95816.63;5065222;28;20461;-75
2022/04/30 04:21:32;;;;;;;11.00;7.60;;;;;;;10.06;64.17;95820.84;5063969;28;20495;-76
2022/04/30 04:26:41;;;;;;;14.70;7.25;;;;;;;10.13;64.24;95822.72;5064350;28;20182;-75
2022/04/30 04:29:07;;;;;;;11.10;7.78;;;;;;;10.13;64.55;95825.38;5064860;28;20021;-75
2022/04/30 04:31:32;;;;;;;10.95;7.57;;;;;;;10.20;64.43;95827.41;5064319;28;20035;-76
2022/04/30 04:33:58;;;;;;;11.55;8.27;;;;;;;10.27;64.64;95831.94;5064352;28;20052;-75
2022/04/30 04:36:23;;;;;;;14.02;8.65;;;;;;;10.41;64.04;95820.72;5064519;28;20028;-76
2022/04/30 04:38:49;;;;;;;13.68;8.40;;;;;;;10.60;64.09;95824.94;5029503;28;20024;-77
2022/04/30 04:41:15;;;;;;;12.52;7.95;;;;;;;10.99;62.88;95818.06;5030447;28;20395;-76
2022/04/30 04:43:40;;;;;;;11.95;7.72;;;;;;;11.29;62.01;95823.69;5063884;28;20064;-76
2022/04/30 04:46:06;;;;;;;12.90;8.77;;;;;;;11.55;61.65;95821.78;5064810;28;20025;-76
2022/04/30 04:48:32;;;;;;;15.05;8.80;;;;;;;11.80;60.73;95829.75;5046177;28;20037;-77
2022/04/30 04:50:57;;;;;;;12.98;8.15;;;;;;;11.85;61.39;95819.28;5046370;28;20031;-77
2022/04/30 04:53:22;;;;;;;15.38;8.65;;;;;;;12.05;60.54;95821.53;5064310;28;20033;-77
2022/04/30 04:55:48;;;;;;;11.52;7.30;;;;;;;12.17;60.42;95820.16;5045689;28;20020;-76
2022/04/30 04:58:14;;;;;;;14.27;8.70;;;;;;;12.51;59.49;95825.31;5046609;28;20074;-77
2022/04/30 05:00:39;;;;;;;13.82;8.13;;;;;;;12.71;59.14;95837.28;5063849;28;20490;-77
2022/04/30 05:03:05;;;;;;;11.80;8.32;;;;;;;12.88;58.48;95833.63;5064705;28;20458;-76
2022/04/30 05:05:30;;;;;;;13.07;8.27;;;;;;;13.06;57.88;95833.25;5063884;28;20024;-76
2022/04/30 05:07:56;;;;;;;11.43;8.13;;;;;;;13.25;57.65;95833.78;5064568;28;20025;-78
2022/04/30 05:10:21;;;;;;;12.75;8.30;;;;;;;13.39;57.64;95837.50;5046162;28;20020;-76
2022/04/30 05:12:47;;;;;;;12.60;7.90;;;;;;;13.57;57.27;95839.88;5063814;28;20476;-77
2022/04/30 05:15:13;;;;;;;15.15;9.75;;;;;;;13.83;56.89;95835.84;5066188;28;20024;-77
2022/04/30 05:17:38;;;;;;;14.48;8.90;;;;;;;13.62;57.72;95837.44;5067090;28;20021;-77
2022/04/30 05:20:05;;;;;;;14.15;8.77;;;;;;;14.03;56.97;95835.25;5068419;28;20025;-76
2022/04/30 05:22:30;;;;;;;11.90;8.00;;;;;;;14.27;56.03;95839.47;5032798;28;20067;-76
2022/04/30 05:24:56;;;;;;;12.48;8.75;;;;;;;14.41;55.46;95829.66;5067841;28;20026;-76
2022/04/30 05:27:21;;;;;;;18.63;9.10;;;;;;;14.70;54.81;95838.66;5067579;28;20074;-77
2022/04/30 05:29:47;;;;;;;16.08;9.48;;;;;;;14.72;55.03;95835.78;5032857;28;20032;-77
2022/04/30 05:32:12;;;;;;;13.15;8.75;;;;;;;14.80;55.08;95837.53;5068049;28;20025;-76
2022/04/30 05:34:38;;;;;;;12.35;8.80;;;;;;;14.91;54.44;95830.78;5049200;28;20430;-76
2022/04/30 05:37:04;;;;;;;13.88;9.27;;;;;;;14.99;53.98;95829.81;5049794;28;20016;-76
2022/04/30 05:39:29;;;;;;;13.75;8.45;;;;;;;15.22;53.61;95828.75;5066903;28;20024;-76
2022/04/30 05:41:55;;;;;;;13.57;9.10;;;;;;;15.32;53.79;95831.94;5032967;28;20039;-76
2022/04/30 05:44:20;;;;;;;11.35;8.90;;;;;;;15.36;52.66;95832.38;5032352;28;20035;-78
2022/04/30 05:46:46;;;;;;;11.13;8.30;;;;;;;15.31;52.86;95846.47;5049211;28;20044;-76
2022/04/30 05:49:11;;;;;;;12.95;8.40;;;;;;;15.50;52.43;95844.09;5032651;28;20016;-76
2022/04/30 05:51:36;;;;;;;11.20;8.25;;;;;;;15.28;52.87;95844.19;5049118;28;20036;-77
2022/04/30 05:54:02;;;;;;;12.55;7.95;;;;;;;15.27;52.97;95851.44;5048997;28;20028;-76
2022/04/30 05:56:27;;;;;;;11.80;7.68;;;;;;;15.58;52.57;95849.34;5066611;28;20031;-76
2022/04/30 05:58:53;;;;;;;10.50;8.15;;;;;;;15.14;53.53;95851.31;5049344;28;20032;-78
2022/04/30 06:01:18;;;;;;;11.52;7.88;;;;;;;15.26;53.38;95848.94;5031999;28;20032;-78
2022/04/30 06:03:44;;;;;;;11.25;8.48;;;;;;;15.46;53.04;95849.06;5032730;28;20409;-76
2022/04/30 06:06:09;;;;;;;11.10;7.78;;;;;;;15.28;52.65;95844.19;5048598;28;20496;-77
2022/04/30 06:08:35;;;;;;;9.80;7.18;;;;;;;15.44;51.94;95849.25;5049147;28;20506;-77
2022/04/30 06:11:01;;;;;;;11.95;8.18;;;;;;;15.38;52.47;95849.25;5048551;28;20028;-80
2022/04/30 06:13:26;;;;;;;9.35;7.28;;;;;;;15.09;52.28;95841.09;5048654;28;20029;-77
2022/04/30 06:15:52;;;;;;;10.02;7.10;;;;;;;15.40;51.94;95842.59;5032117;28;20111;-76
2022/04/30 06:18:17;;;;;;;9.93;7.57;;;;;;;15.79;49.98;95845.75;5066123;28;20029;-76
2022/04/30 06:20:43;;;;;;;11.73;7.43;;;;;;;15.13;51.77;95850.50;5032644;28;20112;-76
2022/04/30 06:23:09;;;;;;;11.23;7.15;;;;;;;14.85;52.42;95848.59;5048118;28;20024;-75
2022/04/30 06:25:37;;;;;;;12.65;8.25;;;;;;;14.87;53.68;95849.25;5048937;28;20422;-77
2022/04/30 06:28:03;;;;;;;10.13;7.68;;;;;;;14.98;52.94;95844.38;5032306;28;20020;-76
2022/04/30 06:30:29;;;;;;;9.73;7.68;;;;;;;15.35;52.50;95849.63;5066342;28;20029;-77
2022/04/30 06:32:54;;;;;;;12.10;7.68;;;;;;;15.61;51.57;95854.38;5048222;28;20035;-75
2022/04/30 06:35:20;;;;;;;9.50;7.30;;;;;;;15.44;52.26;95843.03;5047841;28;20032;-78
2022/04/30 06:37:45;;;;;;;12.98;7.25;;;;;;;15.48;50.89;95843.44;5066627;28;20086;-77
2022/04/30 06:40:12;;;;;;;9.40;7.00;;;;;;;15.64;49.95;95839.59;5065576;28;20051;-78
2022/04/30 06:42:41;;;;;;;8.57;6.63;;;;;;;16.03;49.68;95840.03;5066570;28;20020;-76
2022/04/30 06:45:10;;;;;;;7.93;6.50;;;;;;;16.34;48.29;95836.00;5065716;28;20100;-79
2022/04/30 06:47:36;;;;;;;9.40;6.57;;;;;;;16.32;47.73;95838.06;5016337;28;20060;-79
2022/04/30 06:50:02;;;;;;;8.40;6.20;;;;;;;16.42;47.86;95834.97;5024705;28;20029;-76
2022/04/30 06:52:27;;;;;;;7.78;6.40;;;;;;;16.54;47.51;95832.53;5008222;28;20025;-76
2022/04/30 06:57:36;;;;;;;8.70;6.15;;;;;;;16.77;46.76;95829.41;5025063;28;20072;-75
2022/04/30 07:01:25;;;;;;;12.00;6.97;;;;;;;16.96;46.43;95832.34;5026238;28;20029;-75
2022/04/30 07:02:48;;;;;;;8.10;6.07;;;;;;;17.12;45.81;95831.13;5025703;28;20069;-75
2022/04/30 07:05:14;;;;;;;17.30;6.93;;;;;;;17.15;45.33;95816.34;5025525;28;20029;-77
2022/04/30 07:07:39;;;;;;;8.90;6.40;;;;;;;17.17;45.07;95822.38;5024448;28;20026;-75
2022/04/30 07:10:05;;;;;;;10.07;6.15;;;;;;;17.36;45.59;95820.69;5025164;28;20025;-77
2022/04/30 07:12:30;;;;;;;9.02;6.50;;;;;;;17.55;44.73;95823.59;5008556;28;20056;-76
2022/04/30 07:14:55;;;;;;;10.73;6.13;;;;;;;17.51;44.75;95816.91;5023947;28;20033;-77
2022/04/30 07:17:22;;;;;;;12.27;6.70;;;;;;;17.78;45.63;95822.28;5025726;28;20405;-75
2022/04/30 07:19:47;;;;;;;8.52;6.60;;;;;;;18.03;44.11;95819.69;5025556;28;20030;-78
2022/04/30 07:22:13;;;;;;;8.85;6.22;;;;;;;17.77;44.84;95820.59;5007520;28;20021;-76
2022/04/30 07:24:38;;;;;;;8.18;6.53;;;;;;;17.76;45.94;95821.66;5007602;28;20029;-76
2022/04/30 07:27:04;;;;;;;9.32;7.30;;;;;;;17.88;43.93;95822.66;5025055;28;20045;-77
2022/04/30 07:29:30;;;;;;;6.60;5.20;;;;;;;17.72;44.23;95825.81;5007719;28;20049;-75
2022/04/30 07:31:56;;;;;;;7.43;6.28;;;;;;;17.91;43.99;95824.13;5007165;28;20033;-75
2022/04/30 07:34:22;;;;;;;8.13;6.00;;;;;;;18.04;44.28;95826.78;5025566;28;20029;-74
2022/04/30 07:36:48;;;;;;;8.93;6.70;;;;;;;17.91;43.61;95821.41;5023264;28;20040;-77
2022/04/30 07:39:14;;;;;;;11.02;5.45;;;;;;;17.59;44.35;95830.25;5023802;28;20431;-77
2022/04/30 07:41:39;;;;;;;10.75;6.38;;;;;;;17.79;44.29;95829.38;5023789;28;20037;-75
2022/04/30 07:44:05;;;;;;;7.93;5.78;;;;;;;17.98;44.69;95829.50;5024995;28;20076;-76
2022/04/30 07:46:30;;;;;;;7.13;5.70;;;;;;;18.18;44.30;95823.19;5031300;28;20086;-76
2022/04/30 07:48:56;;;;;;;7.93;5.63;;;;;;;18.33;43.05;95818.31;5029817;28;20040;-74
2022/04/30 07:51:34;;;;;;;8.13;6.03;;;;;;;18.30;43.70;95817.94;5030435;28;20543;-75
2022/04/30 07:54:03;;;;;;;7.88;5.82;;;;;;;18.44;42.88;95818.69;5048432;28;20051;-76
2022/04/30 07:56:28;;;;;;;7.75;5.50;;;;;;;17.85;43.69;95811.38;5046900;28;20043;-76
2022/04/30 07:58:54;;;;;;;10.20;5.57;;;;;;;18.18;43.23;95812.34;5064828;28;20435;-76
2022/04/30 08:01:19;;;;;;;8.68;5.57;;;;;;;18.43;43.53;95806.97;5064380;28;20020;-76
2022/04/30 08:03:45;;;;;;;6.97;5.68;;;;;;;18.37;42.97;95806.00;5047073;28;20527;-76
2022/04/30 08:06:10;;;;;;;10.15;5.20;;;;;;;18.47;42.51;95802.81;5064146;28;20036;-76
2022/04/30 08:08:36;;;;;;;8.00;5.82;;;;;;;18.32;42.68;95808.50;5046958;28;20341;-76
2022/04/30 08:11:01;;;;;;;9.10;5.40;;;;;;;18.70;42.80;95811.44;5029575;28;20043;-77
2022/04/30 08:13:27;;;;;;;7.90;5.57;;;;;;;18.83;42.26;95800.44;5047172;28;20090;-74
2022/04/30 08:15:52;;;;;;;7.70;5.80;;;;;;;18.85;41.92;95806.50;5046507;28;20106;-75
2022/04/30 08:18:18;;;;;;;9.35;5.60;;;;;;;18.92;41.89;95805.63;5030055;28;20035;-76
2022/04/30 08:20:45;;;;;;;5.95;5.03;;;;;;;18.49;41.82;95805.31;5064347;28;20032;-76
2022/04/30 08:23:10;;;;;;;8.43;5.00;;;;;;;18.49;41.83;95805.31;5046626;28;20029;-77
2022/04/30 08:25:36;;;;;;;7.18;4.90;;;;;;;18.46;42.25;95800.31;5046460;28;20078;-75
2022/04/30 08:28:03;;;;;;;7.05;4.90;;;;;;;18.57;41.68;95798.78;5045994;28;20020;-75
2022/04/30 08:30:28;;;;;;;8.88;4.35;;;;;;;18.50;41.77;95801.53;5013876;28;20479;-76
2022/04/30 08:32:54;;;;;;;6.50;4.20;;;;;;;18.57;41.70;95796.88;5046049;28;20017;-76
2022/04/30 08:35:19;;;;;;;6.32;4.65;;;;;;;18.66;41.99;95808.31;5064562;28;20036;-74
2022/04/30 08:37:45;;;;;;;7.40;4.60;;;;;;;18.64;41.60;95794.13;5063884;28;20028;-75
2022/04/30 08:40:11;;;;;;;8.10;4.85;;;;;;;18.32;42.26;95796.81;5046269;28;20074;-75
2022/04/30 08:42:36;;;;;;;6.80;5.03;;;;;;;18.38;41.68;95790.50;5029801;28;20035;-76
2022/04/30 08:45:03;;;;;;;7.18;4.88;;;;;;;18.07;42.52;95795.66;5012759;28;20037;-76
2022/04/30 08:47:31;;;;;;;7.80;4.80;;;;;;;18.15;42.96;95797.34;5046624;28;20045;-75
2022/04/30 08:49:57;;;;;;;10.80;5.55;;;;;;;18.24;42.95;95798.75;5030790;28;20104;-75
2022/04/30 08:52:22;;;;;;;9.70;4.90;;;;;;;18.28;42.41;95810.00;5068723;28;20013;-76
2022/04/30 08:54:48;;;;;;;9.23;4.35;;;;;;;18.20;42.27;95792.06;5049847;28;20369;-77
2022/04/30 08:57:15;;;;;;;17.75;5.45;;;;;;;18.31;43.17;95797.88;5033807;28;20028;-75
2022/04/30 08:59:41;;;;;;;18.63;6.38;;;;;;;18.25;42.85;95794.16;5050251;28;20398;-75
2022/04/30 09:02:10;;;;;;;8.15;5.35;;;;;;;18.19;42.38;95797.72;5050200;28;20023;-76
2022/04/30 09:04:46;;;;;;;6.65;4.13;;;;;;;17.98;42.81;95788.81;5068580;28;20491;-76
2022/04/30 09:07:17;;;;;;;7.35;4.90;;;;;;;18.22;42.96;95789.97;5049732;28;20029;-76
2022/04/30 09:09:43;;;;;;;5.75;3.53;;;;;;;17.98;42.00;95795.06;5050639;28;20502;-76
2022/04/30 09:12:10;;;;;;;6.22;4.05;;;;;;;18.04;43.29;95783.34;5016875;28;20035;-75
2022/04/30 09:14:59;;;;;;;10.93;4.00;;;;;;;18.08;43.30;95785.63;5017199;28;20116;-76
2022/04/30 09:17:28;;;;;;;5.22;3.33;;;;;;;17.88;42.31;95781.97;5067975;28;20119;-77
2022/04/30 09:19:54;;;;;;;5.10;3.53;;;;;;;17.92;43.55;95785.94;5066423;28;20059;-76
2022/04/30 09:22:30;;;;;;;4.38;3.53;;;;;;;17.85;44.08;95771.53;5050346;28;20039;-76
2022/04/30 09:24:56;;;;;;;5.78;3.20;;;;;;;17.76;43.43;95770.13;5033043;28;20494;-75
2022/04/30 09:27:21;;;;;;;5.30;3.17;;;;;;;17.85;42.39;95782.38;5050047;28;20025;-75
2022/04/30 09:29:46;;;;;;;6.38;3.45;;;;;;;17.89;42.70;95780.91;5049408;28;20028;-76
2022/04/30 09:32:16;;;;;;;19.13;4.57;;;;;;;17.91;43.25;95773.38;5032932;28;20016;-79
2022/04/30 09:37:52;;;;;;;17.10;5.05;;;;;;;18.05;43.01;95762.47;5051787;28;20170;-76
2022/04/30 09:40:15;;;;;;;23.90;6.10;;;;;;;18.12;42.12;95757.88;5052333;28;20048;-77
2022/04/30 09:42:41;;;;;;;12.40;4.72;;;;;;;17.89;42.02;95769.22;5049422;28;20082;-77
2022/04/30 09:45:07;;;;;;;15.00;4.75;;;;;;;17.90;42.43;95754.59;5049208;28;20095;-78
2022/04/30 09:47:33;;;;;;;13.32;5.25;;;;;;;17.79;42.15;95765.09;5049169;28;20044;-76
2022/04/30 09:55:30;;;;;;;32.13;6.55;;;;;;;18.02;41.26;95752.06;5052350;28;20187;-77
2022/04/30 09:57:55;;;;;;;43.28;7.55;;;;;;;18.00;40.10;95755.00;5032480;28;20017;-77
2022/04/30 10:00:21;;;;;;;66.68;14.65;;;;;;;18.00;39.79;95755.00;5015473;28;20036;-77
2022/04/30 10:02:47;;;;;;;8.27;3.03;;;;;;;17.98;39.84;95748.09;5048609;28;20395;-75
2022/04/30 10:05:12;;;;;;;31.35;6.78;;;;;;;18.04;40.51;95734.50;5032321;28;20017;-76
2022/04/30 10:07:37;;;;;;;3.10;2.08;;;;;;;18.08;39.59;95747.63;5048165;28;20431;-75
2022/04/30 10:10:14;;;;;;;3.70;2.40;;;;;;;18.03;39.83;95740.16;5066949;28;20407;-76
2022/04/30 10:12:42;;;;;;;5.78;2.35;;;;;;;18.02;39.83;95730.34;5032345;28;20107;-75
2022/04/30 10:15:25;;;;;;;3.35;2.08;;;;;;;17.92;38.95;95736.25;5032437;28;20422;-77
2022/04/30 10:17:54;;;;;;;6.40;2.40;;;;;;;18.02;40.19;95724.94;5033730;28;20035;-77
2022/04/30 10:20:34;;;;;;;5.72;2.75;;;;;;;18.11;40.96;95715.47;5066176;28;20115;-76
2022/04/30 10:22:59;;;;;;;5.00;2.50;;;;;;;18.06;39.20;95715.28;5049646;28;20055;-78
2022/04/30 10:25:46;;;;;;;3.63;2.25;;;;;;;18.03;38.36;95713.00;5031796;28;20475;-78
2022/04/30 10:28:14;;;;;;;3.85;2.40;;;;;;;18.03;39.20;95716.56;5048469;28;20485;-77
2022/04/30 10:30:40;;;;;;;3.92;2.40;;;;;;;18.02;39.62;95714.06;5066613;28;20020;-76
2022/04/30 10:33:07;;;;;;;4.82;2.88;;;;;;;18.13;39.31;95707.13;5048001;28;20037;-75
2022/04/30 10:35:32;;;;;;;3.47;2.20;;;;;;;18.24;39.68;95716.47;5048866;28;20029;-75
2022/04/30 10:38:13;;;;;;;4.97;2.42;;;;;;;18.21;38.76;95709.59;5065780;28;20070;-74
2022/04/30 10:40:49;;;;;;;5.32;2.53;;;;;;;17.97;39.26;95698.44;5048753;28;20044;-77
2022/04/30 10:43:19;;;;;;;5.75;2.97;;;;;;;18.10;37.81;95704.84;5014994;28;20029;-78
2022/04/30 10:45:45;;;;;;;6.10;2.72;;;;;;;18.28;38.94;95704.13;5048194;28;20158;-77
2022/04/30 10:48:10;;;;;;;5.22;3.10;;;;;;;18.40;38.96;95701.53;5031023;28;20068;-76
2022/04/30 10:50:36;;;;;;;4.80;3.20;;;;;;;18.49;38.25;95700.19;5065754;28;20493;-76
2022/04/30 10:53:01;;;;;;;4.22;2.97;;;;;;;18.57;38.91;95701.81;5048312;28;20032;-76
2022/04/30 10:55:27;;;;;;;3.75;2.92;;;;;;;18.61;38.20;95705.75;5013977;28;20098;-76
2022/04/30 10:57:52;;;;;;;3.55;2.60;;;;;;;18.62;38.34;95698.44;5066229;28;20056;-77
2022/04/30 11:00:18;;;;;;;5.15;3.17;;;;;;;18.74;38.01;95701.25;5047171;28;20128;-76
2022/04/30 11:02:43;;;;;;;8.25;2.88;;;;;;;18.89;37.79;95695.50;5031294;28;20027;-76
2022/04/30 11:05:25;;;;;;;6.07;2.58;;;;;;;19.00;37.62;95696.63;5047484;28;20039;-77
2022/04/30 11:07:50;;;;;;;3.95;2.63;;;;;;;18.89;37.54;95706.38;5014747;28;20094;-75
2022/04/30 11:10:16;;;;;;;4.63;3.08;;;;;;;18.82;37.15;95695.56;5031639;28;20470;-78
2022/04/30 11:12:41;;;;;;;8.77;3.00;;;;;;;18.91;37.45;95696.09;5029976;28;20452;-76
2022/04/30 11:15:10;;;;;;;3.30;2.13;;;;;;;18.68;37.60;95694.84;5031701;28;20124;-77
2022/04/30 11:17:43;;;;;;;6.78;2.10;;;;;;;18.48;37.49;95700.41;5031290;28;20495;-78
2022/04/30 11:20:09;;;;;;;4.20;2.70;;;;;;;18.54;38.23;95696.81;5047700;28;20041;-78
2022/04/30 11:22:34;;;;;;;17.77;3.67;;;;;;;18.67;38.24;95700.50;5047297;28;20077;-77
2022/04/30 11:25:00;;;;;;;5.20;1.80;;;;;;;18.76;38.33;95688.28;5065007;28;20032;-77
2022/04/30 11:27:29;;;;;;;8.00;2.42;;;;;;;18.97;37.99;95695.22;5047518;28;20036;-79
2022/04/30 11:29:57;;;;;;;7.68;2.70;;;;;;;19.11;37.75;95682.34;5030180;28;20402;-77
2022/04/30 11:32:32;;;;;;;6.00;2.17;;;;;;;19.12;37.33;95683.19;5048045;28;20108;-77
2022/04/30 11:35:01;;;;;;;6.68;2.58;;;;;;;19.29;37.52;95677.13;5065232;28;20116;-78
2022/04/30 11:37:27;;;;;;;4.32;2.40;;;;;;;19.34;36.63;95677.28;5030474;28;20023;-77
2022/04/30 11:39:52;;;;;;;4.45;2.25;;;;;;;19.44;36.20;95674.84;5030978;28;20024;-77
2022/04/30 11:42:23;;;;;;;5.15;2.88;;;;;;;19.56;36.31;95679.53;5064871;28;20032;-78
2022/04/30 11:44:52;;;;;;;5.75;2.65;;;;;;;19.39;36.76;95678.25;5047598;28;20116;-77
2022/04/30 11:47:20;;;;;;;5.35;2.28;;;;;;;19.41;36.17;95688.09;5046639;28;20049;-79
2022/04/30 11:49:45;;;;;;;3.30;2.08;;;;;;;19.43;36.87;95683.25;5030982;28;20035;-77
2022/04/30 11:52:11;;;;;;;3.03;2.10;;;;;;;19.59;36.60;95670.91;5047137;28;20024;-78
2022/04/30 11:54:38;;;;;;;5.80;2.00;;;;;;;19.80;35.92;95675.03;5014208;28;20039;-79
2022/04/30 11:57:04;;;;;;;3.10;2.15;;;;;;;19.92;36.02;95674.25;5047104;28;20078;-75
2022/04/30 11:59:34;;;;;;;3.20;1.90;;;;;;;20.00;35.89;95671.22;5046427;28;20028;-78